Time;durP1;ratioP1;P1;durP2;ratioP2;P2;SDS_P1;SDS_P2;PMS_P1;PMS_P2;Temp;Humidity;BMP_temperature;BMP_pressure;BME280_temperature;BME280_humidity;BME280_pressure;Samples;Min_cycle;Max_cycle;Signal;HPM_P1;HPM_P2
2022/12/16 00:00:18;;;;;;;41.53;19.58;;;-1.00;99.90;;;;;;5047285;28;20043;-69
2022/12/16 00:02:45;;;;;;;38.55;19.05;;;-1.00;99.90;;;;;;5051130;28;20068;-72
2022/12/16 00:05:12;;;;;;;32.75;17.83;;;-1.00;99.90;;;;;;5047911;28;20395;-72
2022/12/16 00:07:40;;;;;;;38.25;18.33;;;-1.00;99.90;;;;;;5043231;28;20455;-72
2022/12/16 00:10:08;;;;;;;33.42;17.95;;;-1.10;99.90;;;;;;5050807;28;20051;-72
2022/12/16 00:12:35;;;;;;;36.08;19.15;;;-1.10;99.90;;;;;;5050938;28;20560;-72
2022/12/16 00:15:03;;;;;;;35.63;18.08;;;-1.10;99.90;;;;;;5051867;28;20055;-73
2022/12/16 00:17:30;;;;;;;38.67;18.63;;;-1.10;99.90;;;;;;5031371;28;20448;-73
2022/12/16 00:19:57;;;;;;;35.08;18.83;;;-1.10;99.90;;;;;;5031259;28;20068;-72
2022/12/16 00:22:25;;;;;;;36.83;18.77;;;-1.10;99.90;;;;;;5051767;28;20041;-72
2022/12/16 00:24:52;;;;;;;37.47;18.42;;;-1.10;99.90;;;;;;5050973;28;20052;-72
2022/12/16 00:27:21;;;;;;;33.70;17.73;;;-1.10;99.90;;;;;;5049240;28;20040;-72
2022/12/16 00:29:48;;;;;;;55.13;25.30;;;-1.10;99.90;;;;;;5030547;28;20053;-74
2022/12/16 00:32:15;;;;;;;37.47;19.75;;;-1.20;99.90;;;;;;5048142;28;20065;-72
2022/12/16 00:34:43;;;;;;;37.28;19.60;;;-1.20;99.90;;;;;;5047732;28;20057;-73
2022/12/16 00:37:12;;;;;;;39.95;20.30;;;-1.20;99.90;;;;;;5040339;28;20522;-73
2022/12/16 00:39:39;;;;;;;38.80;19.27;;;-1.20;99.90;;;;;;5018608;28;20045;-73
2022/12/16 00:42:06;;;;;;;36.80;18.63;;;-1.20;99.90;;;;;;5051742;28;20084;-73
2022/12/16 00:44:34;;;;;;;38.67;19.38;;;-1.20;99.90;;;;;;5017349;28;20072;-72
2022/12/16 00:47:01;;;;;;;37.30;19.10;;;-1.30;99.90;;;;;;5040679;28;20051;-73
2022/12/16 00:49:29;;;;;;;38.17;20.50;;;-1.30;99.90;;;;;;5036401;28;20136;-72
2022/12/16 00:51:56;;;;;;;38.10;19.77;;;-1.30;99.90;;;;;;5022491;28;20083;-73
2022/12/16 00:54:23;;;;;;;41.05;20.35;;;-1.30;99.90;;;;;;5030530;28;20470;-73
2022/12/16 00:56:51;;;;;;;40.47;20.05;;;-1.20;99.90;;;;;;5047802;28;20114;-72
2022/12/16 00:59:18;;;;;;;42.00;20.83;;;-1.30;99.90;;;;;;5033552;28;20573;-72
2022/12/16 01:01:45;;;;;;;40.03;19.65;;;-1.30;99.90;;;;;;5033046;28;20052;-73
2022/12/16 01:04:13;;;;;;;40.75;20.10;;;-1.30;99.90;;;;;;5040523;28;20036;-72
2022/12/16 01:06:40;;;;;;;38.35;19.70;;;-1.30;99.90;;;;;;5032285;28;21074;-73
2022/12/16 01:09:08;;;;;;;37.97;18.55;;;-1.30;99.90;;;;;;5049480;28;20526;-72
2022/12/16 01:11:35;;;;;;;39.17;19.98;;;-1.30;99.90;;;;;;5048168;28;20045;-72
2022/12/16 01:14:02;;;;;;;39.10;21.35;;;-1.20;99.90;;;;;;5042708;28;20474;-72
2022/12/16 01:16:30;;;;;;;40.97;20.58;;;-1.20;99.90;;;;;;5048102;28;20411;-72
2022/12/16 01:18:57;;;;;;;39.33;20.00;;;-1.30;99.90;;;;;;5033350;28;20041;-72
2022/12/16 01:21:24;;;;;;;42.55;21.52;;;-1.20;99.90;;;;;;5042222;28;20060;-72
2022/12/16 01:23:53;;;;;;;43.05;20.88;;;-1.20;99.90;;;;;;5030917;28;20045;-69
2022/12/16 01:26:21;;;;;;;40.13;20.10;;;-1.20;99.90;;;;;;5048604;28;20029;-69
2022/12/16 01:28:48;;;;;;;43.28;21.25;;;-1.20;99.90;;;;;;5044102;28;20049;-69
2022/12/16 01:31:17;;;;;;;40.80;20.17;;;-1.10;99.90;;;;;;5036153;28;20037;-69
2022/12/16 01:33:44;;;;;;;41.15;20.88;;;-1.20;99.90;;;;;;5046632;28;20481;-71
2022/12/16 01:36:12;;;;;;;40.55;20.52;;;-1.20;99.90;;;;;;5044909;28;20042;-69
2022/12/16 01:38:42;;;;;;;43.95;21.33;;;-1.20;99.90;;;;;;5028303;28;20064;-68
2022/12/16 01:41:12;;;;;;;42.90;21.27;;;-1.20;99.90;;;;;;5042836;28;20456;-70
2022/12/16 01:43:41;;;;;;;42.53;20.15;;;-1.20;99.90;;;;;;5021571;28;20051;-69
2022/12/16 01:46:11;;;;;;;41.53;20.77;;;-1.30;99.90;;;;;;5036316;28;20046;-69
2022/12/16 01:48:38;;;;;;;42.15;22.15;;;-1.30;99.90;;;;;;5047841;28;20049;-71
2022/12/16 01:51:12;;;;;;;42.60;21.52;;;-1.30;99.90;;;;;;5047988;28;20045;-69
2022/12/16 01:53:41;;;;;;;42.33;22.10;;;-1.30;99.90;;;;;;5019049;28;20505;-68
2022/12/16 01:56:11;;;;;;;46.22;22.20;;;-1.30;99.90;;;;;;5037708;28;20206;-70
2022/12/16 01:58:40;;;;;;;43.47;22.40;;;-1.30;99.90;;;;;;5049577;28;20060;-69
2022/12/16 02:01:07;;;;;;;43.38;21.55;;;-1.30;99.90;;;;;;5032480;28;20041;-69
2022/12/16 02:03:36;;;;;;;43.83;21.65;;;-1.30;99.90;;;;;;5046551;28;20426;-69
2022/12/16 02:06:06;;;;;;;44.00;22.50;;;-1.30;99.90;;;;;;5027326;28;20049;-69
2022/12/16 02:08:34;;;;;;;47.90;22.70;;;-1.40;99.90;;;;;;5036144;28;20112;-69
2022/12/16 02:11:20;;;;;;;46.40;22.48;;;-1.40;99.90;;;;;;5042969;28;20053;-69
2022/12/16 02:14:11;;;;;;;48.85;22.17;;;-1.40;99.90;;;;;;5032656;28;20387;-68
2022/12/16 02:16:46;;;;;;;43.90;21.57;;;-1.40;99.90;;;;;;5046069;28;20071;-69
2022/12/16 02:19:35;;;;;;;42.47;21.15;;;-1.50;99.90;;;;;;5027822;28;20045;-69
2022/12/16 02:22:28;;;;;;;43.75;21.90;;;-1.50;99.90;;;;;;5028868;28;20499;-69
2022/12/16 02:25:02;;;;;;;47.67;22.00;;;-1.50;99.90;;;;;;5041115;28;20033;-69
2022/12/16 02:27:52;;;;;;;40.97;20.92;;;-1.50;99.90;;;;;;5028183;28;20071;-69
2022/12/16 02:30:39;;;;;;;44.75;20.85;;;-1.50;99.90;;;;;;5024932;28;20096;-69
2022/12/16 02:33:37;;;;;;;48.15;21.27;;;-1.50;99.90;;;;;;5029501;28;20423;-70
2022/12/16 02:36:10;;;;;;;38.30;20.58;;;-1.50;99.90;;;;;;5014202;28;20054;-68
2022/12/16 02:38:47;;;;;;;42.40;20.63;;;-1.50;99.90;;;;;;5046125;28;20037;-70
2022/12/16 02:41:36;;;;;;;40.60;21.20;;;-1.50;99.90;;;;;;5048472;28;20037;-68
2022/12/16 02:44:05;;;;;;;;;;;-1.50;99.90;;;;;;5049439;28;20049;-68
2022/12/16 02:46:38;;;;;;;41.30;19.80;;;-1.60;99.90;;;;;;5036696;28;19971;-69
2022/12/16 02:49:26;;;;;;;41.22;20.65;;;-1.60;99.90;;;;;;5046336;28;20054;-69
2022/12/16 02:51:55;;;;;;;40.53;19.95;;;-1.60;99.90;;;;;;5051529;28;20450;-69
2022/12/16 02:54:22;;;;;;;40.60;19.95;;;-1.60;99.90;;;;;;5052649;28;20572;-68
2022/12/16 02:56:59;;;;;;;38.60;18.90;;;-1.60;99.90;;;;;;5047403;28;20625;-68
2022/12/16 02:59:49;;;;;;;40.60;20.42;;;-1.50;99.90;;;;;;5045675;28;20125;-69
2022/12/16 03:02:51;;;;;;;38.45;19.75;;;-1.50;99.90;;;;;;5053584;28;20049;-68
2022/12/16 03:05:27;;;;;;;36.70;20.40;;;-1.60;99.90;;;;;;5034946;28;20041;-68
2022/12/16 03:07:59;;;;;;;38.05;18.65;;;-1.60;99.90;;;;;;5052312;28;20418;-70
2022/12/16 03:10:31;;;;;;;46.00;21.20;;;-1.60;99.90;;;;;;5046159;28;20432;-70
2022/12/16 03:13:00;;;;;;;36.42;19.05;;;-1.60;99.90;;;;;;5057590;28;20145;-71
2022/12/16 03:15:30;;;;;;;38.15;19.60;;;-1.70;99.90;;;;;;5031923;28;20041;-69
2022/12/16 03:17:59;;;;;;;38.72;19.33;;;-1.70;99.90;;;;;;5038107;28;20065;-68
2022/12/16 03:20:37;;;;;;;40.85;20.75;;;-1.60;99.90;;;;;;5030677;28;20045;-69
2022/12/16 03:23:10;;;;;;;40.50;19.73;;;-1.70;99.90;;;;;;5051731;28;20468;-68
2022/12/16 03:25:42;;;;;;;39.78;19.75;;;-1.70;99.90;;;;;;5048209;28;20052;-69
2022/12/16 03:28:44;;;;;;;38.15;19.00;;;-1.70;99.90;;;;;;5052090;28;20647;-69
2022/12/16 03:31:19;;;;;;;;;;;-1.80;99.90;;;;;;5047016;28;20047;-71
2022/12/16 03:33:52;;;;;;;35.92;18.83;;;-1.80;99.90;;;;;;5043026;28;19932;-71
2022/12/16 03:36:24;;;;;;;43.45;20.35;;;-1.80;99.90;;;;;;5045973;28;20077;-68
2022/12/16 03:38:54;;;;;;;41.55;19.88;;;-1.80;99.90;;;;;;5039316;28;20111;-68
2022/12/16 03:41:23;;;;;;;42.42;20.13;;;-1.80;99.90;;;;;;5030085;28;20038;-71
2022/12/16 03:43:51;;;;;;;39.15;20.52;;;-1.80;99.90;;;;;;5040330;28;20147;-68
2022/12/16 03:46:19;;;;;;;35.65;18.23;;;-1.80;99.90;;;;;;5046434;28;20071;-68
2022/12/16 03:48:50;;;;;;;39.33;20.02;;;-1.80;99.90;;;;;;5041767;28;20049;-69
2022/12/16 03:51:18;;;;;;;36.95;18.80;;;-1.80;99.90;;;;;;5030933;28;20076;-68
2022/12/16 03:53:46;;;;;;;36.58;20.85;;;-1.80;99.90;;;;;;5044888;28;20056;-69
2022/12/16 03:56:13;;;;;;;40.63;20.75;;;-1.80;99.90;;;;;;5049026;28;20047;-68
2022/12/16 03:58:41;;;;;;;43.08;20.27;;;-1.80;99.90;;;;;;5041383;28;20446;-69
2022/12/16 04:01:09;;;;;;;39.03;19.60;;;-1.80;99.90;;;;;;5033940;28;20546;-68
2022/12/16 04:03:36;;;;;;;37.80;19.50;;;-1.80;99.90;;;;;;5051147;28;20045;-68
2022/12/16 04:06:04;;;;;;;35.90;18.92;;;-1.90;99.90;;;;;;5026743;28;20463;-69
2022/12/16 04:08:31;;;;;;;39.28;20.10;;;-1.90;99.90;;;;;;5046145;28;20042;-69
2022/12/16 04:25:34;;;;;;;33.70;18.42;;;-1.90;99.90;;;;;;5052074;28;20094;-68
2022/12/16 04:28:02;;;;;;;39.72;20.33;;;-1.80;99.90;;;;;;5042993;28;20069;-68
2022/12/16 04:30:33;;;;;;;35.83;18.95;;;-1.90;99.90;;;;;;5031437;28;20175;-69
